Time;durP1;ratioP1;P1;durP2;ratioP2;P2;SDS_P1;SDS_P2;PMS_P1;PMS_P2;Temp;Humidity;BMP_temperature;BMP_pressure;BME280_temperature;BME280_humidity;BME280_pressure;Samples;Min_cycle;Max_cycle;Signal;HPM_P1;HPM_P2
2023/10/23 00:01:09;;;;;;;12.23;8.57;;;;;;;;;;2064416;28;20034;-78
2023/10/23 00:02:30;;;;;;;9.75;7.40;;;;;;;;;;2058990;28;20029;-79
2023/10/23 00:03:51;;;;;;;13.32;8.75;;;;;;;;;;2070834;28;20512;-79
2023/10/23 00:05:12;;;;;;;11.15;9.02;;;;;;;;;;2061814;28;20038;-78
2023/10/23 00:06:33;;;;;;;10.77;8.10;;;;;;;;;;2062654;28;20030;-79
2023/10/23 00:07:54;;;;;;;11.23;8.20;;;;;;;;;;2068315;28;20084;-78
2023/10/23 00:09:15;;;;;;;12.52;8.95;;;;;;;;;;2071083;28;20433;-78
2023/10/23 00:10:36;;;;;;;11.35;9.07;;;;;;;;;;2061978;28;20489;-78
2023/10/23 00:11:57;;;;;;;14.13;9.73;;;;;;;;;;2059365;28;20034;-79
2023/10/23 00:13:18;;;;;;;10.15;8.30;;;;;;;;;;2065336;28;20034;-79
2023/10/23 00:14:39;;;;;;;9.68;7.55;;;;;;;;;;2063091;28;20057;-78
2023/10/23 00:16:00;;;;;;;11.60;8.68;;;;;;;;;;2057750;28;20050;-78
2023/10/23 00:17:21;;;;;;;10.75;7.82;;;;;;;;;;2061158;28;20082;-78
2023/10/23 00:18:41;;;;;;;11.77;8.32;;;;;;;;;;2069865;28;20030;-78
2023/10/23 00:20:02;;;;;;;10.77;8.02;;;;;;;;;;2059375;28;20505;-79
2023/10/23 00:21:23;;;;;;;11.32;8.32;;;;;;;;;;2063032;28;20030;-79
2023/10/23 00:22:44;;;;;;;10.38;7.43;;;;;;;;;;2066399;28;20022;-78
2023/10/23 00:24:05;;;;;;;12.40;8.20;;;;;;;;;;2065452;28;20039;-78
2023/10/23 00:25:26;;;;;;;10.93;8.48;;;;;;;;;;2063338;28;20038;-79
2023/10/23 00:26:47;;;;;;;11.80;8.00;;;;;;;;;;2063050;28;20106;-78
2023/10/23 00:28:08;;;;;;;7.88;6.90;;;;;;;;;;2061426;28;20062;-79
2023/10/23 00:29:29;;;;;;;10.93;7.38;;;;;;;;;;2062643;28;20034;-78
2023/10/23 00:30:49;;;;;;;8.75;7.75;;;;;;;;;;2060199;28;20030;-79
2023/10/23 00:32:10;;;;;;;8.63;7.72;;;;;;;;;;2061875;28;20358;-78
2023/10/23 00:33:31;;;;;;;9.77;7.57;;;;;;;;;;2063266;28;20042;-78
2023/10/23 00:34:52;;;;;;;11.55;8.80;;;;;;;;;;2064235;28;20093;-79
2023/10/23 00:36:13;;;;;;;9.43;8.23;;;;;;;;;;2062425;28;20053;-78
2023/10/23 00:37:34;;;;;;;11.02;7.57;;;;;;;;;;2060529;28;20066;-78
2023/10/23 00:38:55;;;;;;;14.32;8.88;;;;;;;;;;2067607;28;20030;-79
2023/10/23 00:40:16;;;;;;;9.10;7.85;;;;;;;;;;2066036;28;20058;-78
2023/10/23 00:41:37;;;;;;;9.07;8.25;;;;;;;;;;2064313;28;20026;-78
2023/10/23 00:43:09;;;;;;;16.40;8.70;;;;;;;;;;2058754;28;20027;-79
2023/10/23 00:44:30;;;;;;;14.38;7.75;;;;;;;;;;2059850;28;20042;-78
2023/10/23 00:45:55;;;;;;;12.02;8.43;;;;;;;;;;2066373;28;20026;-79
2023/10/23 00:47:21;;;;;;;9.80;8.68;;;;;;;;;;2062245;28;20121;-78
2023/10/23 00:48:42;;;;;;;11.50;7.97;;;;;;;;;;2062994;28;20084;-79
2023/10/23 00:50:03;;;;;;;11.30;7.13;;;;;;;;;;2068929;28;20042;-79
2023/10/23 00:51:25;;;;;;;10.30;7.65;;;;;;;;;;2068246;28;20034;-78
2023/10/23 00:52:46;;;;;;;11.13;8.30;;;;;;;;;;2066309;28;20038;-78
2023/10/23 00:54:07;;;;;;;11.88;7.15;;;;;;;;;;2070619;28;20053;-79
2023/10/23 00:55:28;;;;;;;8.77;7.20;;;;;;;;;;2057926;28;20050;-78
2023/10/23 00:56:49;;;;;;;12.90;8.80;;;;;;;;;;2060185;28;20026;-78
2023/10/23 00:58:11;;;;;;;7.40;6.70;;;;;;;;;;2062861;28;20148;-79
2023/10/23 00:59:32;;;;;;;11.38;7.70;;;;;;;;;;2063165;28;20133;-79
2023/10/23 01:00:57;;;;;;;10.98;7.05;;;;;;;;;;2064894;28;20027;-79
2023/10/23 01:02:18;;;;;;;8.45;7.25;;;;;;;;;;2063024;28;20446;-79
2023/10/23 01:03:42;;;;;;;14.38;8.15;;;;;;;;;;2065398;28;20030;-79
2023/10/23 01:05:03;;;;;;;9.27;7.35;;;;;;;;;;2057714;28;20038;-78
2023/10/23 01:06:24;;;;;;;7.68;6.88;;;;;;;;;;2062658;28;20018;-79
2023/10/23 01:07:45;;;;;;;11.15;7.63;;;;;;;;;;2062134;28;20025;-78
2023/10/23 01:09:06;;;;;;;8.18;6.70;;;;;;;;;;2057598;28;20039;-78
2023/10/23 01:10:27;;;;;;;9.10;6.95;;;;;;;;;;2065963;28;20037;-79
2023/10/23 01:11:47;;;;;;;10.13;8.13;;;;;;;;;;2068344;28;20037;-78
2023/10/23 01:13:09;;;;;;;9.10;7.50;;;;;;;;;;2059505;28;20097;-78
2023/10/23 01:14:29;;;;;;;11.60;8.80;;;;;;;;;;2064000;28;20049;-79
2023/10/23 01:15:51;;;;;;;9.70;7.43;;;;;;;;;;2064934;28;20081;-78
2023/10/23 01:17:12;;;;;;;9.30;8.15;;;;;;;;;;2065270;28;20488;-78
2023/10/23 01:18:33;;;;;;;10.35;7.55;;;;;;;;;;2076508;28;20044;-79
2023/10/23 01:19:53;;;;;;;10.10;8.10;;;;;;;;;;2074464;28;20045;-78
2023/10/23 01:21:14;;;;;;;10.23;8.00;;;;;;;;;;2071630;28;20034;-79
2023/10/23 01:22:35;;;;;;;10.57;7.90;;;;;;;;;;2065992;28;20537;-78
2023/10/23 01:23:58;;;;;;;12.65;8.55;;;;;;;;;;2063516;28;20038;-79
2023/10/23 01:25:19;;;;;;;9.52;8.15;;;;;;;;;;2061853;28;20023;-79
2023/10/23 01:26:40;;;;;;;9.70;8.50;;;;;;;;;;2068862;28;20080;-78
2023/10/23 01:28:01;;;;;;;9.50;8.48;;;;;;;;;;2063788;28;20022;-78
2023/10/23 01:29:22;;;;;;;11.13;7.95;;;;;;;;;;2066973;28;20034;-78
2023/10/23 01:30:43;;;;;;;9.65;8.32;;;;;;;;;;2071966;28;20026;-79
2023/10/23 01:32:04;;;;;;;12.43;7.32;;;;;;;;;;2063145;28;20396;-79
2023/10/23 01:33:25;;;;;;;10.77;7.43;;;;;;;;;;2062753;28;20044;-79
2023/10/23 01:34:46;;;;;;;10.77;8.18;;;;;;;;;;2062028;28;20038;-78
2023/10/23 01:36:07;;;;;;;9.35;6.88;;;;;;;;;;2061992;28;20038;-78
2023/10/23 01:37:28;;;;;;;7.68;6.88;;;;;;;;;;2058958;28;20035;-77
2023/10/23 01:38:48;;;;;;;8.77;7.43;;;;;;;;;;2062182;28;20042;-78
2023/10/23 01:40:10;;;;;;;8.75;7.70;;;;;;;;;;2065000;28;20026;-79
2023/10/23 01:41:31;;;;;;;9.38;7.85;;;;;;;;;;2060440;28;20038;-78
2023/10/23 01:42:51;;;;;;;8.68;7.65;;;;;;;;;;2065932;28;20092;-78
2023/10/23 01:44:12;;;;;;;10.70;6.93;;;;;;;;;;2067376;28;20045;-78
2023/10/23 01:45:33;;;;;;;9.77;7.50;;;;;;;;;;2062449;28;20403;-78
2023/10/23 01:46:54;;;;;;;8.50;7.38;;;;;;;;;;2061346;28;20054;-78
2023/10/23 01:48:15;;;;;;;8.75;7.07;;;;;;;;;;2065137;28;20049;-78
2023/10/23 01:49:36;;;;;;;8.57;7.45;;;;;;;;;;2068178;28;20541;-78
2023/10/23 01:50:59;;;;;;;10.30;7.68;;;;;;;;;;2062860;28;20050;-78
2023/10/23 01:52:20;;;;;;;13.40;8.25;;;;;;;;;;2064446;28;20112;-79
2023/10/23 01:53:41;;;;;;;10.38;7.43;;;;;;;;;;2061568;28;20061;-78
2023/10/23 01:55:02;;;;;;;10.23;7.75;;;;;;;;;;2063279;28;20046;-78
2023/10/23 01:56:23;;;;;;;8.48;7.28;;;;;;;;;;2070051;28;20096;-78
2023/10/23 01:57:44;;;;;;;10.07;8.63;;;;;;;;;;2068211;28;20756;-78
2023/10/23 01:59:05;;;;;;;8.18;7.20;;;;;;;;;;2065107;28;20038;-78
2023/10/23 02:00:26;;;;;;;13.10;8.35;;;;;;;;;;2060658;28;20074;-78
2023/10/23 02:01:47;;;;;;;13.70;7.82;;;;;;;;;;2063365;28;20031;-78
2023/10/23 02:03:08;;;;;;;11.35;7.13;;;;;;;;;;2060385;28;20030;-78
2023/10/23 02:04:29;;;;;;;9.50;7.65;;;;;;;;;;2061654;28;20043;-78
2023/10/23 02:05:49;;;;;;;9.63;8.30;;;;;;;;;;2061701;28;20397;-78
2023/10/23 02:07:10;;;;;;;9.55;7.03;;;;;;;;;;2059600;28;20046;-78
2023/10/23 02:08:31;;;;;;;10.02;8.07;;;;;;;;;;2063321;28;20034;-78
2023/10/23 02:09:52;;;;;;;20.10;8.48;;;;;;;;;;2055704;28;20034;-78
2023/10/23 02:11:13;;;;;;;14.05;7.40;;;;;;;;;;2062268;28;20417;-78
2023/10/23 02:12:34;;;;;;;18.83;7.47;;;;;;;;;;2063549;28;20545;-78
2023/10/23 02:13:55;;;;;;;11.38;8.73;;;;;;;;;;2064188;28;20073;-78
2023/10/23 02:15:17;;;;;;;11.90;7.53;;;;;;;;;;2063370;28;20042;-78
2023/10/23 02:16:38;;;;;;;11.40;7.32;;;;;;;;;;2065783;28;20038;-78
2023/10/23 02:17:59;;;;;;;9.27;6.90;;;;;;;;;;2062039;28;20043;-78
2023/10/23 02:19:20;;;;;;;20.27;7.30;;;;;;;;;;2070792;28;20025;-78
2023/10/23 02:20:41;;;;;;;10.75;7.18;;;;;;;;;;2064981;28;20121;-78
2023/10/23 02:22:02;;;;;;;10.10;7.15;;;;;;;;;;2066808;28;20037;-78
2023/10/23 02:23:23;;;;;;;13.98;7.45;;;;;;;;;;2070679;28;20030;-77
2023/10/23 02:24:44;;;;;;;17.77;8.27;;;;;;;;;;2063792;28;20383;-78
2023/10/23 02:26:05;;;;;;;12.88;7.70;;;;;;;;;;2058722;28;20038;-78
2023/10/23 02:27:26;;;;;;;13.25;8.48;;;;;;;;;;2061314;28;20441;-78
2023/10/23 02:28:47;;;;;;;15.45;8.25;;;;;;;;;;2063499;28;20046;-77
2023/10/23 02:30:08;;;;;;;16.50;7.45;;;;;;;;;;2059699;28;20039;-78
2023/10/23 02:31:29;;;;;;;22.42;7.55;;;;;;;;;;2062911;28;20053;-78
2023/10/23 02:32:49;;;;;;;22.52;9.07;;;;;;;;;;2065418;28;20045;-78
2023/10/23 02:34:10;;;;;;;28.17;7.65;;;;;;;;;;2061084;28;20046;-78
2023/10/23 02:35:34;;;;;;;22.50;7.47;;;;;;;;;;2064469;28;20397;-78
2023/10/23 02:36:55;;;;;;;11.10;7.65;;;;;;;;;;2061763;28;20037;-78
2023/10/23 02:38:16;;;;;;;8.90;7.82;;;;;;;;;;2058486;28;20634;-78
2023/10/23 02:39:37;;;;;;;14.13;8.25;;;;;;;;;;2068180;28;20084;-78
2023/10/23 02:40:58;;;;;;;13.18;9.52;;;;;;;;;;2064547;28;20027;-78
2023/10/23 02:42:19;;;;;;;11.75;8.10;;;;;;;;;;2065317;28;20030;-78
2023/10/23 02:43:40;;;;;;;28.55;9.20;;;;;;;;;;2064318;28;20038;-78
2023/10/23 02:45:00;;;;;;;16.50;8.63;;;;;;;;;;2060977;28;20113;-78
2023/10/23 02:46:21;;;;;;;18.23;8.35;;;;;;;;;;2059632;28;20348;-79
2023/10/23 02:47:42;;;;;;;15.63;9.43;;;;;;;;;;2060868;28;20081;-77
2023/10/23 02:49:04;;;;;;;12.57;9.07;;;;;;;;;;2059720;28;20105;-76
2023/10/23 02:50:25;;;;;;;16.05;9.20;;;;;;;;;;2067477;28;20030;-77
2023/10/23 02:51:46;;;;;;;13.80;8.48;;;;;;;;;;2061084;28;20081;-77
2023/10/23 02:53:07;;;;;;;13.02;7.75;;;;;;;;;;2060349;28;20668;-76
2023/10/23 02:54:29;;;;;;;20.25;7.50;;;;;;;;;;2067317;28;20057;-77
2023/10/23 02:55:50;;;;;;;11.57;8.68;;;;;;;;;;2066040;28;21006;-77
2023/10/23 02:57:11;;;;;;;10.43;7.85;;;;;;;;;;2058154;28;20351;-77
2023/10/23 02:58:33;;;;;;;11.73;7.90;;;;;;;;;;2064695;28;20030;-77
2023/10/23 02:59:55;;;;;;;14.18;8.15;;;;;;;;;;2068518;28;20037;-77
2023/10/23 03:01:16;;;;;;;16.17;8.80;;;;;;;;;;2062628;28;21187;-77
2023/10/23 03:02:37;;;;;;;23.13;8.02;;;;;;;;;;2057972;28;20118;-77
2023/10/23 03:03:59;;;;;;;11.23;8.25;;;;;;;;;;2065476;28;20039;-77
2023/10/23 03:05:19;;;;;;;11.70;7.38;;;;;;;;;;2063724;28;20031;-78
2023/10/23 03:06:40;;;;;;;12.20;8.57;;;;;;;;;;2059027;28;20042;-77
2023/10/23 03:08:02;;;;;;;13.23;8.75;;;;;;;;;;2062267;28;20034;-77
2023/10/23 03:09:23;;;;;;;21.30;9.05;;;;;;;;;;2059390;28;20046;-77
2023/10/23 03:10:44;;;;;;;18.98;8.20;;;;;;;;;;2071404;28;20030;-78
2023/10/23 03:12:05;;;;;;;15.57;8.63;;;;;;;;;;2062595;28;20035;-78
2023/10/23 03:13:26;;;;;;;17.00;7.97;;;;;;;;;;2070150;28;20151;-79
2023/10/23 03:14:47;;;;;;;15.88;8.50;;;;;;;;;;2062683;28;20518;-78
2023/10/23 03:16:08;;;;;;;12.25;8.88;;;;;;;;;;2061106;28;20101;-78
2023/10/23 03:17:29;;;;;;;11.80;7.72;;;;;;;;;;2061506;28;20050;-79
2023/10/23 03:18:50;;;;;;;15.95;8.80;;;;;;;;;;2063465;28;20447;-78
2023/10/23 03:20:11;;;;;;;9.65;7.13;;;;;;;;;;2064784;28;20034;-78
2023/10/23 03:21:32;;;;;;;10.40;7.72;;;;;;;;;;2060939;28;20030;-79
2023/10/23 03:22:53;;;;;;;10.52;7.65;;;;;;;;;;2062297;28;20065;-79
2023/10/23 03:24:15;;;;;;;15.55;8.15;;;;;;;;;;2057166;28;20050;-79
2023/10/23 03:25:35;;;;;;;13.02;8.77;;;;;;;;;;2059346;28;20042;-78
2023/10/23 03:26:56;;;;;;;11.23;8.10;;;;;;;;;;2062762;28;20031;-79
2023/10/23 03:28:17;;;;;;;14.38;8.73;;;;;;;;;;2067026;28;20037;-79
2023/10/23 03:29:40;;;;;;;13.63;9.00;;;;;;;;;;2062075;28;20031;-78
2023/10/23 03:31:03;;;;;;;13.68;8.35;;;;;;;;;;2061354;28;20038;-78
2023/10/23 03:32:24;;;;;;;13.30;9.13;;;;;;;;;;2062330;28;20129;-78
2023/10/23 03:33:46;;;;;;;12.70;8.63;;;;;;;;;;2061516;28;20030;-78
2023/10/23 03:35:07;;;;;;;14.27;7.88;;;;;;;;;;2066231;28;20188;-78
2023/10/23 03:36:27;;;;;;;13.05;8.75;;;;;;;;;;2061948;28;20461;-78
2023/10/23 03:37:48;;;;;;;12.20;7.85;;;;;;;;;;2059465;28;20035;-78
2023/10/23 03:39:09;;;;;;;11.00;7.75;;;;;;;;;;2060568;28;20034;-77
2023/10/23 03:40:30;;;;;;;14.45;8.82;;;;;;;;;;2060179;28;20037;-78
2023/10/23 03:41:51;;;;;;;30.80;8.70;;;;;;;;;;2059096;28;20027;-78
2023/10/23 03:43:12;;;;;;;13.70;7.88;;;;;;;;;;2060579;28;20023;-78
2023/10/23 03:44:33;;;;;;;14.13;8.55;;;;;;;;;;2063208;28;20486;-78
2023/10/23 03:45:54;;;;;;;11.32;7.45;;;;;;;;;;2063358;28;20038;-78
2023/10/23 03:47:15;;;;;;;12.60;6.57;;;;;;;;;;2070207;28;20060;-78
2023/10/23 03:48:36;;;;;;;12.70;7.80;;;;;;;;;;2063267;28;20034;-78
2023/10/23 03:49:57;;;;;;;10.50;7.88;;;;;;;;;;2064669;28;20043;-78
2023/10/23 03:51:18;;;;;;;13.27;7.97;;;;;;;;;;2061028;28;20027;-78
2023/10/23 03:52:39;;;;;;;14.25;9.07;;;;;;;;;;2061389;28;20478;-78
2023/10/23 03:54:00;;;;;;;14.50;7.80;;;;;;;;;;2061996;28;20038;-78
2023/10/23 03:55:21;;;;;;;27.92;8.27;;;;;;;;;;2066500;28;20042;-78
2023/10/23 03:56:42;;;;;;;19.40;8.32;;;;;;;;;;2061001;28;20038;-78
2023/10/23 03:58:02;;;;;;;12.13;8.43;;;;;;;;;;2072052;28;20038;-78
2023/10/23 03:59:23;;;;;;;12.48;7.53;;;;;;;;;;2068880;28;20084;-78
2023/10/23 04:00:44;;;;;;;16.77;8.13;;;;;;;;;;2063944;28;20034;-78
2023/10/23 04:02:05;;;;;;;12.70;8.57;;;;;;;;;;2058468;28;20105;-78
2023/10/23 04:03:26;;;;;;;14.80;8.93;;;;;;;;;;2062185;28;20089;-78
2023/10/23 04:04:47;;;;;;;15.55;9.02;;;;;;;;;;2057061;28;20065;-78
2023/10/23 04:06:08;;;;;;;11.38;8.25;;;;;;;;;;2069131;28;20532;-78
2023/10/23 04:07:29;;;;;;;11.75;8.13;;;;;;;;;;2062189;28;20049;-78
2023/10/23 04:08:52;;;;;;;18.70;7.72;;;;;;;;;;2072674;28;20041;-78
2023/10/23 04:10:14;;;;;;;12.38;8.82;;;;;;;;;;2065838;28;20363;-78
2023/10/23 04:11:34;;;;;;;10.30;8.48;;;;;;;;;;2069649;28;20462;-78
2023/10/23 04:12:55;;;;;;;8.55;7.55;;;;;;;;;;2066354;28;20038;-78
2023/10/23 04:14:16;;;;;;;12.35;8.10;;;;;;;;;;2060699;28;20098;-78
2023/10/23 04:15:37;;;;;;;11.80;8.65;;;;;;;;;;2067755;28;20033;-78
2023/10/23 04:16:58;;;;;;;9.85;8.15;;;;;;;;;;2063176;28;20053;-78
2023/10/23 04:18:19;;;;;;;12.63;8.70;;;;;;;;;;2067796;28;20042;-78
2023/10/23 04:19:40;;;;;;;14.70;8.93;;;;;;;;;;2063274;28;20445;-78
2023/10/23 04:21:02;;;;;;;14.00;8.80;;;;;;;;;;2065113;28;20042;-78
2023/10/23 04:22:23;;;;;;;;;;;;;;;;;;2058579;28;20034;-78
2023/10/23 04:23:43;;;;;;;11.68;8.32;;;;;;;;;;2065895;28;19923;-78
2023/10/23 04:25:04;;;;;;;13.63;8.43;;;;;;;;;;2063336;28;20482;-78
2023/10/23 04:26:25;;;;;;;10.32;7.43;;;;;;;;;;2063869;28;20045;-78
2023/10/23 04:27:46;;;;;;;11.85;8.65;;;;;;;;;;2061225;28;20058;-78
2023/10/23 04:29:08;;;;;;;11.13;8.18;;;;;;;;;;2067058;28;20465;-78
2023/10/23 04:30:29;;;;;;;;;;;;;;;;;;2068115;28;20062;-78
2023/10/23 04:31:50;;;;;;;14.48;8.60;;;;;;;;;;2065109;28;19912;-78
2023/10/23 04:33:11;;;;;;;11.07;7.80;;;;;;;;;;2065207;28;20096;-78
2023/10/23 04:34:32;;;;;;;17.80;10.35;;;;;;;;;;2069581;28;20034;-78
2023/10/23 04:35:54;;;;;;;12.50;8.38;;;;;;;;;;2064797;28;20038;-78
2023/10/23 04:37:15;;;;;;;14.05;8.80;;;;;;;;;;2062451;28;20169;-78
2023/10/23 04:38:36;;;;;;;14.18;9.20;;;;;;;;;;2063127;28;20374;-77
2023/10/23 04:39:57;;;;;;;13.07;8.80;;;;;;;;;;2060510;28;20026;-78
2023/10/23 04:41:18;;;;;;;13.70;9.00;;;;;;;;;;2067939;28;20068;-78
2023/10/23 04:42:39;;;;;;;15.05;8.60;;;;;;;;;;2065454;28;20041;-78
2023/10/23 04:44:00;;;;;;;11.65;8.02;;;;;;;;;;2066126;28;20038;-78
2023/10/23 04:45:21;;;;;;;11.05;9.00;;;;;;;;;;2062379;28;20069;-79
2023/10/23 04:46:42;;;;;;;16.60;9.52;;;;;;;;;;2064589;28;20026;-78
2023/10/23 04:48:03;;;;;;;11.48;8.23;;;;;;;;;;2064368;28;20034;-78
2023/10/23 04:49:24;;;;;;;15.48;8.88;;;;;;;;;;2063722;28;20142;-81
2023/10/23 04:50:45;;;;;;;22.80;9.30;;;;;;;;;;2060763;28;20486;-79
2023/10/23 04:52:06;;;;;;;15.10;9.40;;;;;;;;;;2061899;28;20054;-78
2023/10/23 04:53:27;;;;;;;18.05;10.57;;;;;;;;;;2059650;28;20097;-79
2023/10/23 04:54:49;;;;;;;15.82;8.50;;;;;;;;;;2059934;28;20505;-79
2023/10/23 04:56:09;;;;;;;10.88;8.50;;;;;;;;;;2062707;28;20088;-78
2023/10/23 04:57:30;;;;;;;11.07;8.20;;;;;;;;;;2067567;28;20195;-78
2023/10/23 04:58:51;;;;;;;13.50;9.93;;;;;;;;;;2063946;28;20034;-78
2023/10/23 05:00:12;;;;;;;13.07;9.25;;;;;;;;;;2061388;28;20101;-78
2023/10/23 05:01:33;;;;;;;13.18;9.48;;;;;;;;;;2062849;28;20038;-78
2023/10/23 05:02:54;;;;;;;12.57;8.38;;;;;;;;;;2069215;28;20022;-78
2023/10/23 05:04:15;;;;;;;12.25;8.90;;;;;;;;;;2059812;28;20027;-78
2023/10/23 05:05:36;;;;;;;9.95;8.88;;;;;;;;;;2060386;28;20041;-77
2023/10/23 05:06:57;;;;;;;11.07;9.40;;;;;;;;;;2059393;28;20354;-78
2023/10/23 05:08:18;;;;;;;12.13;8.88;;;;;;;;;;2060322;28;20042;-78
2023/10/23 05:09:39;;;;;;;10.35;9.23;;;;;;;;;;2059328;28;20053;-78
2023/10/23 05:11:06;;;;;;;9.88;8.80;;;;;;;;;;2065152;28;20042;-78
2023/10/23 05:12:28;;;;;;;11.57;9.52;;;;;;;;;;2058416;28;20026;-79
2023/10/23 05:13:49;;;;;;;11.45;8.57;;;;;;;;;;2062274;28;20494;-79
2023/10/23 05:15:10;;;;;;;10.57;8.63;;;;;;;;;;2067649;28;20433;-79
2023/10/23 05:16:31;;;;;;;19.42;9.80;;;;;;;;;;2061665;28;21363;-78
2023/10/23 05:17:52;;;;;;;10.25;8.90;;;;;;;;;;2062999;28;20055;-79
2023/10/23 05:19:12;;;;;;;16.70;9.38;;;;;;;;;;2064512;28;20548;-78
2023/10/23 05:20:34;;;;;;;11.52;8.93;;;;;;;;;;2063963;28;20038;-79
2023/10/23 05:21:55;;;;;;;12.05;8.85;;;;;;;;;;2061902;28;20031;-80
2023/10/23 05:23:15;;;;;;;12.93;9.60;;;;;;;;;;2062811;28;20034;-79
2023/10/23 05:24:36;;;;;;;11.80;8.68;;;;;;;;;;2061276;28;20034;-78
2023/10/23 05:25:57;;;;;;;15.35;7.85;;;;;;;;;;2061554;28;20038;-78
2023/10/23 05:27:20;;;;;;;13.70;9.30;;;;;;;;;;2066128;28;20505;-79
2023/10/23 05:28:40;;;;;;;;;;;;;;;;;;2064160;28;20043;-78
2023/10/23 05:30:03;;;;;;;11.68;8.73;;;;;;;;;;2069444;28;19921;-79
2023/10/23 05:31:24;;;;;;;11.60;7.95;;;;;;;;;;2067569;28;20069;-79
2023/10/23 05:32:45;;;;;;;17.92;9.88;;;;;;;;;;2059152;28;20081;-77
2023/10/23 05:34:06;;;;;;;11.32;7.97;;;;;;;;;;2065422;28;20035;-77
2023/10/23 05:35:27;;;;;;;11.30;9.13;;;;;;;;;;2060095;28;20058;-77
2023/10/23 05:36:48;;;;;;;19.15;9.02;;;;;;;;;;2068470;28;20038;-77
2023/10/23 05:38:09;;;;;;;13.55;9.75;;;;;;;;;;2059861;28;20026;-77
2023/10/23 05:39:30;;;;;;;15.13;8.98;;;;;;;;;;2063584;28;20031;-78
2023/10/23 05:40:57;;;;;;;11.02;8.60;;;;;;;;;;2063958;28;20485;-78
2023/10/23 05:42:18;;;;;;;14.05;9.57;;;;;;;;;;2068852;28;20045;-79
2023/10/23 05:43:39;;;;;;;13.18;9.82;;;;;;;;;;2065265;28;20030;-76
2023/10/23 05:45:02;;;;;;;11.13;8.60;;;;;;;;;;2059413;28;20034;-77
2023/10/23 05:46:23;;;;;;;14.43;8.75;;;;;;;;;;2067076;28;20022;-76
2023/10/23 05:47:44;;;;;;;16.88;7.82;;;;;;;;;;2064887;28;20560;-77
2023/10/23 05:49:05;;;;;;;10.82;8.27;;;;;;;;;;2067639;28;20359;-77
2023/10/23 05:50:26;;;;;;;9.77;7.72;;;;;;;;;;2065370;28;20027;-77
2023/10/23 05:51:47;;;;;;;15.80;8.40;;;;;;;;;;2066759;28;20064;-76
2023/10/23 05:53:08;;;;;;;13.98;7.95;;;;;;;;;;2057527;28;20043;-77
2023/10/23 05:54:30;;;;;;;15.05;8.10;;;;;;;;;;2062901;28;20076;-77
2023/10/23 05:55:50;;;;;;;9.73;7.20;;;;;;;;;;2062035;28;20042;-76
2023/10/23 05:57:11;;;;;;;13.75;7.32;;;;;;;;;;2061251;28;20093;-76
2023/10/23 05:58:33;;;;;;;16.92;7.97;;;;;;;;;;2064579;28;20097;-76
2023/10/23 05:59:54;;;;;;;21.17;8.23;;;;;;;;;;2063618;28;20026;-78
2023/10/23 06:01:14;;;;;;;18.30;8.25;;;;;;;;;;2062029;28;20449;-77
2023/10/23 06:02:35;;;;;;;13.57;8.18;;;;;;;;;;2065733;28;20030;-77
2023/10/23 06:03:56;;;;;;;11.77;8.43;;;;;;;;;;2059752;28;20023;-77
2023/10/23 06:05:17;;;;;;;12.57;8.32;;;;;;;;;;2061494;28;20039;-78
2023/10/23 06:06:38;;;;;;;14.60;7.50;;;;;;;;;;2062730;28;20391;-78
2023/10/23 06:07:59;;;;;;;12.13;8.57;;;;;;;;;;2062464;28;20047;-78
2023/10/23 06:09:20;;;;;;;9.93;8.10;;;;;;;;;;2067776;28;20041;-78
2023/10/23 06:10:42;;;;;;;10.98;9.38;;;;;;;;;;2060785;28;20050;-78
2023/10/23 06:12:04;;;;;;;11.38;8.98;;;;;;;;;;2060466;28;20568;-78
2023/10/23 06:13:25;;;;;;;;;;;;;;;;;;2071650;28;20504;-78
2023/10/23 06:14:46;;;;;;;12.52;8.27;;;;;;;;;;2066160;28;19945;-77
2023/10/23 06:16:07;;;;;;;15.15;8.35;;;;;;;;;;2064978;28;20030;-77
2023/10/23 06:17:28;;;;;;;8.13;6.83;;;;;;;;;;2065818;28;20105;-78
2023/10/23 06:18:49;;;;;;;13.38;8.45;;;;;;;;;;2071959;28;20034;-77
2023/10/23 06:20:10;;;;;;;14.85;8.43;;;;;;;;;;2074099;28;20030;-78
2023/10/23 06:21:31;;;;;;;16.60;9.15;;;;;;;;;;2070941;28;20042;-77
2023/10/23 06:22:52;;;;;;;15.88;8.40;;;;;;;;;;2068721;28;20027;-78
2023/10/23 06:24:13;;;;;;;12.20;8.07;;;;;;;;;;2057501;28;20031;-77
2023/10/23 06:25:33;;;;;;;15.05;9.43;;;;;;;;;;2058434;28;20030;-77
2023/10/23 06:26:54;;;;;;;13.43;8.48;;;;;;;;;;2064805;28;20409;-77
2023/10/23 06:28:15;;;;;;;11.18;8.50;;;;;;;;;;2064773;28;20045;-77
2023/10/23 06:29:36;;;;;;;12.18;8.95;;;;;;;;;;2059433;28;20039;-77
2023/10/23 06:31:03;;;;;;;11.80;8.82;;;;;;;;;;2062738;28;20023;-77
2023/10/23 06:32:24;;;;;;;10.05;8.35;;;;;;;;;;2061096;28;20038;-77
2023/10/23 06:33:46;;;;;;;12.80;8.48;;;;;;;;;;2065073;28;20535;-77
2023/10/23 06:35:07;;;;;;;;;;;;;;;;;;2062728;28;20053;-79
2023/10/23 06:36:29;;;;;;;12.48;8.38;;;;;;;;;;2057259;28;20502;-78
2023/10/23 06:37:50;;;;;;;10.70;8.68;;;;;;;;;;2068739;28;20026;-79
2023/10/23 06:39:12;;;;;;;11.80;8.27;;;;;;;;;;2067409;28;20034;-78
2023/10/23 06:40:33;;;;;;;11.02;8.68;;;;;;;;;;2065854;28;20512;-79
2023/10/23 06:41:54;;;;;;;12.45;9.02;;;;;;;;;;2063939;28;20393;-78
2023/10/23 06:43:15;;;;;;;11.23;8.60;;;;;;;;;;2065086;28;20038;-78
2023/10/23 06:44:36;;;;;;;12.00;9.27;;;;;;;;;;2070578;28;20030;-79
2023/10/23 06:45:57;;;;;;;12.00;9.90;;;;;;;;;;2062279;28;20042;-76
2023/10/23 06:47:18;;;;;;;11.82;9.38;;;;;;;;;;2067106;28;20030;-77
2023/10/23 06:48:44;;;;;;;10.90;9.57;;;;;;;;;;2064947;28;20030;-76
2023/10/23 06:50:05;;;;;;;12.15;9.18;;;;;;;;;;2062710;28;20371;-77
2023/10/23 06:51:26;;;;;;;18.10;8.65;;;;;;;;;;2065677;28;20454;-78
2023/10/23 06:52:47;;;;;;;14.40;9.68;;;;;;;;;;2062119;28;20041;-76
2023/10/23 06:54:08;;;;;;;11.25;8.32;;;;;;;;;;2060339;28;20077;-76
2023/10/23 06:55:29;;;;;;;14.57;8.88;;;;;;;;;;2061729;28;20521;-78
2023/10/23 06:56:50;;;;;;;17.45;8.13;;;;;;;;;;2064897;28;20039;-76
2023/10/23 06:58:10;;;;;;;16.48;9.60;;;;;;;;;;2057052;28;20023;-77
2023/10/23 06:59:31;;;;;;;12.88;9.30;;;;;;;;;;2055939;28;20035;-77
2023/10/23 07:00:52;;;;;;;12.73;8.65;;;;;;;;;;2063111;28;20544;-76
2023/10/23 07:02:13;;;;;;;11.52;8.50;;;;;;;;;;2066185;28;20022;-77
2023/10/23 07:03:34;;;;;;;11.23;8.25;;;;;;;;;;2061617;28;20586;-77
2023/10/23 07:04:55;;;;;;;13.30;9.35;;;;;;;;;;2064336;28;20030;-76
2023/10/23 07:06:16;;;;;;;13.10;9.15;;;;;;;;;;2061600;28;20449;-77
2023/10/23 07:07:37;;;;;;;12.80;10.35;;;;;;;;;;2064591;28;20042;-77
2023/10/23 07:08:58;;;;;;;16.52;10.50;;;;;;;;;;2060752;28;20038;-77
2023/10/23 07:10:19;;;;;;;13.20;8.82;;;;;;;;;;2067287;28;20064;-77
2023/10/23 07:11:40;;;;;;;13.88;9.95;;;;;;;;;;2059980;28;20026;-77
2023/10/23 07:13:02;;;;;;;13.10;9.95;;;;;;;;;;2068994;28;20038;-77
2023/10/23 07:14:22;;;;;;;11.77;9.15;;;;;;;;;;2064007;28;20031;-78
2023/10/23 07:15:43;;;;;;;12.88;9.70;;;;;;;;;;2060945;28;20423;-77
2023/10/23 07:17:04;;;;;;;12.77;10.00;;;;;;;;;;2062782;28;20042;-78
2023/10/23 07:18:25;;;;;;;14.88;10.30;;;;;;;;;;2061608;28;20723;-77
2023/10/23 07:19:46;;;;;;;12.43;8.93;;;;;;;;;;2063507;28;20038;-77
2023/10/23 07:21:07;;;;;;;16.02;9.68;;;;;;;;;;2063117;28;20034;-77
2023/10/23 07:22:28;;;;;;;14.93;9.20;;;;;;;;;;2070527;28;20038;-77
2023/10/23 07:23:49;;;;;;;17.05;10.27;;;;;;;;;;2062143;28;20179;-77
2023/10/23 07:25:10;;;;;;;18.67;10.07;;;;;;;;;;2064343;28;20035;-77
2023/10/23 07:26:31;;;;;;;16.23;9.57;;;;;;;;;;2068148;28;20033;-77
2023/10/23 07:27:52;;;;;;;15.48;10.05;;;;;;;;;;2064096;28;20323;-77
2023/10/23 07:29:13;;;;;;;14.38;10.57;;;;;;;;;;2056273;28;20042;-77
2023/10/23 07:30:34;;;;;;;18.23;9.90;;;;;;;;;;2060193;28;20035;-77
2023/10/23 07:31:55;;;;;;;15.88;9.93;;;;;;;;;;2059273;28;20034;-77
2023/10/23 07:33:16;;;;;;;13.63;9.95;;;;;;;;;;2057832;28;20031;-77
2023/10/23 07:34:37;;;;;;;18.77;11.10;;;;;;;;;;2059133;28;20069;-77
2023/10/23 07:36:02;;;;;;;13.02;10.57;;;;;;;;;;2067150;28;20456;-77
2023/10/23 07:37:23;;;;;;;16.25;10.23;;;;;;;;;;2061914;28;20042;-77
2023/10/23 07:38:44;;;;;;;15.85;11.27;;;;;;;;;;2055896;28;20034;-77
2023/10/23 07:40:06;;;;;;;16.05;9.88;;;;;;;;;;2053787;28;20438;-77
2023/10/23 07:41:26;;;;;;;16.23;11.15;;;;;;;;;;2059014;28;20049;-76
2023/10/23 07:42:47;;;;;;;23.13;10.88;;;;;;;;;;2061638;28;20030;-76
2023/10/23 07:44:08;;;;;;;26.35;11.70;;;;;;;;;;2057547;28;20030;-77
2023/10/23 07:45:30;;;;;;;21.15;11.25;;;;;;;;;;2056206;28;20850;-77
2023/10/23 07:46:52;;;;;;;15.70;11.25;;;;;;;;;;2065643;28;20084;-77
2023/10/23 07:48:13;;;;;;;17.83;11.37;;;;;;;;;;2069432;28;20034;-77
2023/10/23 07:49:34;;;;;;;26.75;11.98;;;;;;;;;;2064249;28;21085;-77
2023/10/23 07:50:57;;;;;;;20.15;11.65;;;;;;;;;;2070036;28;20041;-77
2023/10/23 07:52:18;;;;;;;19.02;11.30;;;;;;;;;;2061112;28;20114;-77
2023/10/23 07:53:38;;;;;;;19.42;12.02;;;;;;;;;;2060179;28;20030;-77
2023/10/23 07:54:59;;;;;;;18.20;11.10;;;;;;;;;;2060375;28;20093;-77
2023/10/23 07:56:20;;;;;;;18.35;9.90;;;;;;;;;;2063508;28;20401;-77
2023/10/23 07:57:41;;;;;;;22.42;12.45;;;;;;;;;;2058308;28;20043;-77
2023/10/23 07:59:02;;;;;;;20.58;12.43;;;;;;;;;;2061675;28;20034;-77
2023/10/23 08:00:23;;;;;;;19.08;11.88;;;;;;;;;;2060538;28;20026;-77
2023/10/23 08:01:44;;;;;;;21.33;12.10;;;;;;;;;;2069590;28;20379;-77